Time;durP1;ratioP1;P1;durP2;ratioP2;P2;SDS_P1;SDS_P2;PMS_P1;PMS_P2;Temp;Humidity;BMP_temperature;BMP_pressure;BME280_temperature;BME280_humidity;BME280_pressure;Samples;Min_cycle;Max_cycle;Signal;HPM_P1;HPM_P2
2021/09/17 00:02:06;;;;;;;17.25;7.32;;;14.20;99.90;;;;;;5009210;28;20031;-61
2021/09/17 00:04:32;;;;;;;16.58;7.10;;;14.30;99.90;;;;;;5016546;28;20096;-61
2021/09/17 00:06:57;;;;;;;14.88;7.15;;;14.30;99.90;;;;;;5012782;28;20104;-61
2021/09/17 00:09:23;;;;;;;18.67;8.05;;;14.20;99.90;;;;;;5012291;28;20493;-62
2021/09/17 00:11:48;;;;;;;25.20;7.68;;;14.30;99.90;;;;;;5013587;28;20102;-61
2021/09/17 00:14:17;;;;;;;18.52;8.32;;;14.30;99.90;;;;;;5015705;28;20033;-62
2021/09/17 00:16:43;;;;;;;17.60;8.18;;;14.30;99.90;;;;;;5013647;28;20029;-62
2021/09/17 00:19:08;;;;;;;25.27;13.32;;;14.20;99.90;;;;;;5010635;28;20038;-61
2021/09/17 00:21:34;;;;;;;25.00;10.38;;;14.40;99.90;;;;;;5010464;28;20028;-62
2021/09/17 00:23:59;;;;;;;16.58;10.32;;;14.40;99.90;;;;;;5013390;28;20025;-62
2021/09/17 00:26:25;;;;;;;18.50;9.82;;;14.40;99.90;;;;;;5014517;28;20024;-62
2021/09/17 00:28:50;;;;;;;14.30;10.30;;;14.40;99.90;;;;;;5012234;28;20046;-60
2021/09/17 00:31:17;;;;;;;23.48;11.48;;;14.30;99.90;;;;;;5011754;28;20025;-60
2021/09/17 00:33:42;;;;;;;13.57;9.73;;;14.30;99.90;;;;;;5013100;28;20056;-59
2021/09/17 00:36:08;;;;;;;20.67;10.32;;;14.30;99.90;;;;;;5017891;28;20552;-60
2021/09/17 00:38:33;;;;;;;25.67;11.50;;;14.20;99.90;;;;;;5009568;28;20158;-61
2021/09/17 00:40:59;;;;;;;22.35;11.57;;;14.20;99.90;;;;;;5015559;28;20477;-56
2021/09/17 00:43:25;;;;;;;18.67;12.02;;;14.10;99.90;;;;;;5009436;28;20052;-61
2021/09/17 00:45:50;;;;;;;20.98;13.75;;;14.10;99.90;;;;;;5003173;28;20041;-59
2021/09/17 00:48:16;;;;;;;22.60;15.35;;;14.10;99.90;;;;;;5009545;28;20439;-57
2021/09/17 00:50:42;;;;;;;18.27;13.55;;;14.10;99.90;;;;;;5009588;28;20029;-59
2021/09/17 00:53:08;;;;;;;24.63;15.88;;;14.00;99.90;;;;;;5007300;28;20061;-62
2021/09/17 00:55:33;;;;;;;24.15;14.73;;;14.00;99.90;;;;;;5010228;28;20476;-61
2021/09/17 00:57:59;;;;;;;19.92;14.70;;;14.10;99.90;;;;;;5017161;28;20052;-60
2021/09/17 01:00:24;;;;;;;37.15;16.48;;;14.00;99.90;;;;;;5011251;28;20022;-59
2021/09/17 01:02:50;;;;;;;21.67;16.30;;;14.00;99.90;;;;;;5012817;28;20104;-59
2021/09/17 01:05:16;;;;;;;28.42;16.02;;;14.00;99.90;;;;;;5011689;28;20108;-59
2021/09/17 01:07:43;;;;;;;26.05;16.92;;;14.00;99.90;;;;;;5015738;28;20030;-60
2021/09/17 01:10:10;;;;;;;20.05;15.32;;;14.00;99.90;;;;;;5009121;28;20021;-61
2021/09/17 01:12:37;;;;;;;30.48;16.90;;;14.10;99.90;;;;;;5009704;28;20025;-56
2021/09/17 01:15:04;;;;;;;29.85;17.55;;;14.10;99.90;;;;;;5010755;28;20026;-61
2021/09/17 01:17:34;;;;;;;24.50;15.10;;;14.10;99.90;;;;;;5009631;28;20489;-60
2021/09/17 01:20:00;;;;;;;22.35;15.55;;;14.20;99.90;;;;;;5014753;28;20029;-58
2021/09/17 01:22:26;;;;;;;21.95;14.70;;;14.20;99.90;;;;;;5010331;28;20092;-58
2021/09/17 01:24:51;;;;;;;25.92;17.30;;;14.20;99.90;;;;;;5017460;28;20029;-61
2021/09/17 01:27:17;;;;;;;26.15;19.85;;;14.30;99.90;;;;;;5017789;28;20018;-63
2021/09/17 01:29:43;;;;;;;28.88;18.38;;;14.20;99.90;;;;;;5010151;28;20057;-61
2021/09/17 01:32:08;;;;;;;27.83;18.65;;;14.20;99.90;;;;;;5012746;28;20073;-60
2021/09/17 01:34:34;;;;;;;29.92;18.35;;;14.20;99.90;;;;;;5014748;28;20026;-61
2021/09/17 01:36:59;;;;;;;23.38;17.83;;;14.20;99.90;;;;;;5013551;28;20038;-62
2021/09/17 01:39:25;;;;;;;26.33;17.60;;;14.20;99.90;;;;;;5015257;28;20076;-63
2021/09/17 01:41:52;;;;;;;27.50;17.60;;;14.20;99.90;;;;;;5012140;28;20046;-60
2021/09/17 01:44:17;;;;;;;28.75;20.55;;;14.20;99.90;;;;;;5012072;28;20037;-64
2021/09/17 01:46:44;;;;;;;38.92;19.92;;;14.20;99.90;;;;;;5019626;28;20028;-62
2021/09/17 01:49:09;;;;;;;26.77;19.63;;;14.10;99.90;;;;;;5015147;28;20041;-62
2021/09/17 01:51:35;;;;;;;32.20;20.35;;;14.10;99.90;;;;;;5014068;28;20026;-61
2021/09/17 01:54:04;;;;;;;33.40;21.77;;;14.10;99.90;;;;;;5013575;28;20049;-60
2021/09/17 01:56:31;;;;;;;27.75;20.10;;;14.10;99.90;;;;;;5019126;28;20021;-58
2021/09/17 01:58:57;;;;;;;32.58;19.73;;;14.10;99.90;;;;;;5011871;28;20069;-60
2021/09/17 02:01:22;;;;;;;39.08;21.42;;;14.10;99.90;;;;;;5013689;28;20058;-58
2021/09/17 02:03:48;;;;;;;32.05;21.33;;;14.10;99.90;;;;;;5013515;28;20022;-61
2021/09/17 02:06:23;;;;;;;27.60;19.63;;;14.10;99.90;;;;;;5016061;28;20033;-62
2021/09/17 02:08:48;;;;;;;32.67;21.42;;;14.10;99.90;;;;;;5015832;28;20108;-62
2021/09/17 02:11:14;;;;;;;28.35;19.45;;;14.10;99.90;;;;;;5031120;23;20069;-56
2021/09/17 02:13:40;;;;;;;26.27;18.08;;;14.10;99.90;;;;;;5010632;28;20041;-56
2021/09/17 02:16:05;;;;;;;32.47;18.70;;;14.10;99.90;;;;;;5015105;28;20036;-57
2021/09/17 02:18:32;;;;;;;29.42;20.23;;;14.10;99.90;;;;;;5015079;28;20034;-54
2021/09/17 02:20:57;;;;;;;32.03;22.85;;;14.20;99.90;;;;;;5012764;28;20033;-55
2021/09/17 02:23:23;;;;;;;32.35;22.48;;;14.10;99.90;;;;;;5012730;28;20401;-55
2021/09/17 02:25:48;;;;;;;33.75;23.58;;;14.10;99.90;;;;;;5016537;28;20492;-55
2021/09/17 02:28:14;;;;;;;35.15;22.02;;;14.20;99.90;;;;;;5012154;28;20025;-55
2021/09/17 02:30:40;;;;;;;33.45;23.48;;;14.10;99.90;;;;;;5013976;28;20030;-54
2021/09/17 02:33:05;;;;;;;37.47;25.35;;;14.10;99.90;;;;;;5011513;28;20541;-56
2021/09/17 02:35:31;;;;;;;33.10;21.25;;;14.10;99.90;;;;;;5011150;28;20057;-58
2021/09/17 02:37:56;;;;;;;35.35;22.73;;;14.10;99.90;;;;;;5015439;28;20378;-55
2021/09/17 02:40:22;;;;;;;37.38;19.50;;;14.10;99.90;;;;;;5015111;28;20459;-57
2021/09/17 02:42:48;;;;;;;38.55;21.75;;;14.10;99.90;;;;;;5012990;28;20034;-57
2021/09/17 02:45:14;;;;;;;30.88;21.30;;;14.10;99.90;;;;;;5013079;28;20064;-57
2021/09/17 02:47:41;;;;;;;34.42;22.17;;;14.10;99.90;;;;;;5017190;28;20466;-57
2021/09/17 02:50:08;;;;;;;32.20;21.52;;;14.10;99.90;;;;;;5014910;28;20021;-54
2021/09/17 02:52:34;;;;;;;29.80;21.90;;;14.10;99.90;;;;;;5013037;28;20439;-54
2021/09/17 02:55:00;;;;;;;30.77;21.75;;;14.20;99.90;;;;;;5014401;28;20082;-56
2021/09/17 02:57:25;;;;;;;39.65;22.88;;;14.10;99.90;;;;;;5016221;28;20083;-57
2021/09/17 02:59:51;;;;;;;39.72;22.60;;;14.10;99.90;;;;;;5015159;28;20096;-57
2021/09/17 03:02:16;;;;;;;36.40;25.27;;;14.10;99.90;;;;;;5013450;28;20083;-56
2021/09/17 03:04:43;;;;;;;35.10;23.55;;;14.20;99.90;;;;;;5011360;28;20022;-56
2021/09/17 03:07:08;;;;;;;35.03;22.25;;;14.20;99.90;;;;;;5013296;28;20163;-55
2021/09/17 03:09:34;;;;;;;39.28;24.83;;;14.20;99.90;;;;;;5014316;28;22138;-54
2021/09/17 03:12:00;;;;;;;35.85;22.05;;;14.20;99.90;;;;;;5012005;28;20069;-57
2021/09/17 03:14:25;;;;;;;31.50;20.70;;;14.20;99.90;;;;;;5011799;28;20133;-57
2021/09/17 03:16:51;;;;;;;42.42;25.38;;;14.20;99.90;;;;;;5014246;28;20481;-57
2021/09/17 03:19:18;;;;;;;39.67;26.30;;;14.20;99.90;;;;;;5016141;28;20103;-58
2021/09/17 03:21:43;;;;;;;40.13;25.45;;;14.20;99.90;;;;;;5014911;28;21129;-56
2021/09/17 03:24:09;;;;;;;39.10;23.23;;;14.20;99.90;;;;;;5012222;28;20033;-55
2021/09/17 03:26:36;;;;;;;41.42;24.10;;;14.20;99.90;;;;;;5015920;28;20396;-55
2021/09/17 03:29:02;;;;;;;44.03;24.65;;;14.20;99.90;;;;;;5017972;28;20481;-54
2021/09/17 03:31:28;;;;;;;40.97;24.27;;;14.30;99.90;;;;;;5013467;28;20029;-55
2021/09/17 03:33:54;;;;;;;38.20;22.23;;;14.30;99.90;;;;;;5009051;28;20072;-56
2021/09/17 03:36:19;;;;;;;35.63;24.02;;;14.30;99.90;;;;;;5014197;28;20025;-57
2021/09/17 03:38:45;;;;;;;41.88;25.10;;;14.30;99.90;;;;;;5014912;28;20374;-56
2021/09/17 03:41:10;;;;;;;36.80;23.20;;;14.20;99.90;;;;;;5013888;28;20086;-54
2021/09/17 03:43:36;;;;;;;42.47;24.23;;;14.30;99.90;;;;;;5008736;28;20034;-55
2021/09/17 03:46:02;;;;;;;45.38;26.10;;;14.30;99.90;;;;;;5016648;28;20029;-54
2021/09/17 03:48:28;;;;;;;35.53;22.58;;;14.30;99.90;;;;;;5014684;28;20034;-54
2021/09/17 03:50:53;;;;;;;35.53;23.48;;;14.30;99.90;;;;;;5014512;28;20033;-55
2021/09/17 03:53:19;;;;;;;35.90;23.67;;;14.30;99.90;;;;;;5011129;28;20030;-57
2021/09/17 03:55:45;;;;;;;39.50;24.05;;;14.30;99.90;;;;;;5015341;28;20052;-56
2021/09/17 03:58:12;;;;;;;35.35;22.52;;;14.30;99.90;;;;;;5013061;28;20036;-57
2021/09/17 04:00:38;;;;;;;36.53;23.02;;;14.30;99.90;;;;;;5013551;28;20550;-56
2021/09/17 04:03:04;;;;;;;39.13;23.48;;;14.30;99.90;;;;;;5008869;28;20409;-57
2021/09/17 04:05:31;;;;;;;37.20;24.60;;;14.30;99.90;;;;;;5014484;28;20213;-56
2021/09/17 04:07:56;;;;;;;36.60;24.52;;;14.30;99.90;;;;;;5013859;28;20055;-57
2021/09/17 04:10:22;;;;;;;40.83;26.27;;;14.30;99.90;;;;;;5012839;28;20030;-57
2021/09/17 04:12:48;;;;;;;42.67;24.35;;;14.30;99.90;;;;;;5009294;28;20037;-57
2021/09/17 04:15:14;;;;;;;36.90;24.52;;;14.30;99.90;;;;;;5012886;28;20025;-57
2021/09/17 04:17:40;;;;;;;36.60;22.98;;;14.30;99.90;;;;;;5012555;28;20018;-58
2021/09/17 04:20:07;;;;;;;37.13;23.73;;;14.30;99.90;;;;;;5015389;28;20032;-58
2021/09/17 04:22:33;;;;;;;37.60;22.25;;;14.30;99.90;;;;;;5010350;28;20036;-55
2021/09/17 04:24:59;;;;;;;35.58;22.92;;;14.30;99.90;;;;;;5015648;28;20486;-58
2021/09/17 04:27:27;;;;;;;35.42;24.48;;;14.30;99.90;;;;;;5014112;28;20041;-57
2021/09/17 04:29:54;;;;;;;44.70;26.80;;;14.40;99.90;;;;;;5011434;28;20091;-56
2021/09/17 04:32:19;;;;;;;44.33;26.67;;;14.40;99.90;;;;;;5008543;28;20036;-55
2021/09/17 04:34:45;;;;;;;46.45;27.73;;;14.40;99.90;;;;;;5011072;28;20038;-54
2021/09/17 04:37:11;;;;;;;41.20;26.17;;;14.40;99.90;;;;;;5011326;28;20061;-56
2021/09/17 04:39:36;;;;;;;52.28;27.48;;;14.40;99.90;;;;;;5012314;28;20460;-58
2021/09/17 04:42:02;;;;;;;42.70;24.88;;;14.40;99.90;;;;;;5008759;28;20117;-57
2021/09/17 04:44:28;;;;;;;43.65;27.13;;;14.40;99.90;;;;;;5011100;28;20042;-55
2021/09/17 04:46:54;;;;;;;52.13;26.45;;;14.40;99.90;;;;;;5016258;28;20029;-56
2021/09/17 04:49:19;;;;;;;41.10;25.63;;;14.40;99.90;;;;;;5011167;28;20072;-58
2021/09/17 04:51:45;;;;;;;45.13;26.38;;;14.40;99.90;;;;;;5012895;28;20029;-58
2021/09/17 04:54:12;;;;;;;46.28;25.65;;;14.40;99.90;;;;;;5013119;28;20056;-57
2021/09/17 04:56:38;;;;;;;45.13;25.50;;;14.30;99.90;;;;;;5010801;28;20456;-56
2021/09/17 04:59:05;;;;;;;37.95;24.17;;;14.30;99.90;;;;;;5005586;28;20543;-55
2021/09/17 05:01:30;;;;;;;46.88;26.50;;;14.40;99.90;;;;;;5008686;28;21421;-55
2021/09/17 05:03:56;;;;;;;47.47;24.92;;;14.40;99.90;;;;;;5010367;28;20034;-57
2021/09/17 05:06:21;;;;;;;40.83;26.15;;;14.40;99.90;;;;;;5011338;28;20018;-57
2021/09/17 05:08:47;;;;;;;44.63;26.42;;;14.40;99.90;;;;;;5011113;28;20033;-57
2021/09/17 05:11:13;;;;;;;47.70;26.33;;;14.40;99.90;;;;;;5010557;28;20026;-57
2021/09/17 05:13:38;;;;;;;48.90;27.42;;;14.30;99.90;;;;;;5012547;28;20432;-57
2021/09/17 05:16:04;;;;;;;41.83;25.83;;;14.30;99.90;;;;;;5011429;28;20452;-57
2021/09/17 05:18:29;;;;;;;47.92;26.33;;;14.40;99.90;;;;;;5014457;28;20432;-58
2021/09/17 05:20:55;;;;;;;43.42;24.73;;;14.40;99.90;;;;;;5011229;28;20695;-57
2021/09/17 05:23:21;;;;;;;41.53;25.02;;;14.40;99.90;;;;;;5013371;28;20087;-55
2021/09/17 05:25:46;;;;;;;45.33;24.00;;;14.30;99.90;;;;;;5011195;28;20041;-56
2021/09/17 05:28:12;;;;;;;42.00;25.40;;;14.30;99.90;;;;;;5011812;28;20039;-54
2021/09/17 05:30:37;;;;;;;41.45;25.08;;;14.30;99.90;;;;;;5012589;28;20034;-57
2021/09/17 05:33:03;;;;;;;40.65;25.58;;;14.40;99.90;;;;;;5012254;28;20042;-58
2021/09/17 05:35:29;;;;;;;42.38;23.90;;;14.30;99.90;;;;;;5010263;28;20048;-57
2021/09/17 05:37:54;;;;;;;41.92;22.77;;;14.40;99.90;;;;;;5008796;28;20041;-58
2021/09/17 05:40:20;;;;;;;37.72;24.70;;;14.40;99.90;;;;;;5011567;28;20036;-55
2021/09/17 05:42:46;;;;;;;44.75;24.25;;;14.40;99.90;;;;;;5007198;28;20076;-55
2021/09/17 05:45:11;;;;;;;37.90;23.27;;;14.40;99.90;;;;;;5011377;28;20097;-57
2021/09/17 05:47:38;;;;;;;34.00;22.08;;;14.40;99.90;;;;;;5005921;28;20026;-57
2021/09/17 05:50:04;;;;;;;36.67;23.23;;;14.50;99.90;;;;;;5008786;28;20030;-57
2021/09/17 05:52:30;;;;;;;39.42;23.98;;;14.40;99.90;;;;;;5014481;28;20061;-55
2021/09/17 05:54:56;;;;;;;37.03;23.45;;;14.50;99.90;;;;;;5013984;28;20135;-55
2021/09/17 05:57:21;;;;;;;53.33;25.40;;;14.50;99.90;;;;;;5011907;28;20163;-55
2021/09/17 05:59:47;;;;;;;45.42;26.23;;;14.50;99.90;;;;;;5012015;28;20037;-55
2021/09/17 06:02:13;;;;;;;45.17;24.95;;;14.50;99.90;;;;;;5010452;28;20021;-57
2021/09/17 06:04:38;;;;;;;42.53;24.48;;;14.50;99.90;;;;;;5013297;28;20405;-55
2021/09/17 06:07:04;;;;;;;38.97;24.90;;;14.50;99.90;;;;;;5015497;28;20038;-56
2021/09/17 06:09:33;;;;;;;43.38;25.00;;;14.60;99.90;;;;;;5016382;28;20053;-54
2021/09/17 06:11:58;;;;;;;43.47;24.10;;;14.60;99.90;;;;;;5015652;28;20118;-54
2021/09/17 06:14:24;;;;;;;45.85;25.52;;;14.60;99.90;;;;;;5011000;28;20460;-55
2021/09/17 06:16:49;;;;;;;45.88;23.85;;;14.60;99.90;;;;;;5019312;28;20773;-54
2021/09/17 06:19:15;;;;;;;49.47;26.30;;;14.60;99.90;;;;;;5012377;28;20040;-56
2021/09/17 06:21:41;;;;;;;47.28;27.33;;;14.60;99.90;;;;;;5014301;28;20485;-55
2021/09/17 06:24:06;;;;;;;41.45;26.20;;;14.70;99.90;;;;;;5016332;28;20064;-54
2021/09/17 06:26:32;;;;;;;42.70;25.60;;;14.70;99.90;;;;;;5016581;28;20021;-54
2021/09/17 06:29:03;;;;;;;42.65;24.70;;;14.80;99.90;;;;;;5016046;28;20026;-57
2021/09/17 06:31:29;;;;;;;33.08;23.02;;;14.80;99.90;;;;;;5011262;28;20055;-57
2021/09/17 06:33:54;;;;;;;34.70;23.20;;;14.80;99.90;;;;;;5013508;28;20038;-54
2021/09/17 06:36:20;;;;;;;42.03;24.45;;;14.90;99.90;;;;;;5015255;28;20025;-58
2021/09/17 06:38:46;;;;;;;44.30;26.30;;;14.90;99.90;;;;;;5012278;28;20044;-57
2021/09/17 06:41:11;;;;;;;44.10;25.92;;;15.00;99.90;;;;;;5012648;28;20528;-57
2021/09/17 06:43:37;;;;;;;47.83;26.95;;;15.00;99.90;;;;;;5011663;28;20507;-57
2021/09/17 06:46:02;;;;;;;43.58;25.40;;;15.00;99.90;;;;;;5013381;28;20480;-54
2021/09/17 06:48:28;;;;;;;42.95;25.67;;;15.00;99.90;;;;;;5013651;28;20026;-55
2021/09/17 06:50:54;;;;;;;45.78;25.85;;;15.00;99.90;;;;;;5012257;28;20038;-56
2021/09/17 06:53:19;;;;;;;44.17;25.75;;;15.00;99.90;;;;;;5016316;28;20025;-54
2021/09/17 06:55:45;;;;;;;44.03;27.38;;;15.00;99.90;;;;;;5016163;28;20044;-57
2021/09/17 06:58:11;;;;;;;47.47;26.90;;;15.00;99.90;;;;;;5013165;28;20026;-55
2021/09/17 07:00:37;;;;;;;39.75;25.92;;;15.00;99.90;;;;;;5013230;28;20147;-58
2021/09/17 07:03:04;;;;;;;49.63;24.30;;;15.10;99.90;;;;;;5017369;28;20815;-56
2021/09/17 07:05:30;;;;;;;49.80;26.63;;;15.10;99.90;;;;;;5014778;28;20033;-55
2021/09/17 07:08:15;;;;;;;42.45;26.38;;;15.20;99.90;;;;;;5013507;28;20436;-57
2021/09/17 07:10:41;;;;;;;43.95;26.38;;;15.20;99.90;;;;;;5015238;28;20084;-54
2021/09/17 07:13:07;;;;;;;38.45;24.25;;;15.20;99.90;;;;;;5012359;28;20042;-57
2021/09/17 07:15:33;;;;;;;46.03;26.80;;;15.30;99.90;;;;;;5012740;28;20030;-57
2021/09/17 07:17:58;;;;;;;36.13;23.17;;;15.30;99.90;;;;;;5015739;28;20079;-57
2021/09/17 07:20:24;;;;;;;44.20;26.98;;;15.30;99.90;;;;;;5015145;28;20153;-57
2021/09/17 07:22:49;;;;;;;38.40;25.02;;;15.30;99.90;;;;;;5014485;28;20028;-55
2021/09/17 07:25:16;;;;;;;36.70;22.92;;;15.30;99.90;;;;;;5014494;28;20524;-57
2021/09/17 07:27:41;;;;;;;42.90;23.83;;;15.30;99.90;;;;;;5014308;28;20485;-55
2021/09/17 07:30:08;;;;;;;32.70;21.65;;;15.40;99.90;;;;;;5013639;28;20032;-54
2021/09/17 07:32:34;;;;;;;37.42;23.50;;;15.40;99.90;;;;;;5011905;28;20032;-55
2021/09/17 07:35:00;;;;;;;40.00;22.48;;;15.50;99.90;;;;;;5011979;28;20075;-58
2021/09/17 07:37:26;;;;;;;45.17;23.65;;;15.50;99.90;;;;;;5013832;28;20033;-57
2021/09/17 07:39:51;;;;;;;36.55;23.55;;;15.50;99.90;;;;;;5013144;28;20933;-57
2021/09/17 07:42:17;;;;;;;37.88;23.92;;;15.50;99.90;;;;;;5015582;28;20155;-54
2021/09/17 07:44:43;;;;;;;30.50;19.48;;;15.50;99.90;;;;;;5011351;28;20113;-54
2021/09/17 07:47:09;;;;;;;40.22;22.30;;;15.60;99.90;;;;;;5011919;28;20389;-56
2021/09/17 07:49:35;;;;;;;34.25;22.25;;;15.50;99.90;;;;;;5015096;28;21903;-56
2021/09/17 07:52:01;;;;;;;38.50;21.15;;;15.60;99.90;;;;;;5011536;28;20504;-55
2021/09/17 07:54:27;;;;;;;38.13;22.45;;;15.60;99.90;;;;;;5013718;28;20032;-57
2021/09/17 07:56:54;;;;;;;37.75;21.58;;;15.60;99.90;;;;;;5012996;28;20033;-56
2021/09/17 07:59:20;;;;;;;37.88;21.42;;;15.60;99.90;;;;;;5013013;28;20086;-58
2021/09/17 08:01:45;;;;;;;36.60;19.52;;;15.60;99.90;;;;;;5015102;28;20045;-57
2021/09/17 08:04:11;;;;;;;31.13;20.38;;;15.70;99.90;;;;;;5013326;28;20025;-57
2021/09/17 08:06:36;;;;;;;37.17;21.20;;;15.70;99.90;;;;;;5014120;28;20488;-58
2021/09/17 08:09:03;;;;;;;31.15;18.90;;;15.70;99.90;;;;;;5012821;28;20497;-54
2021/09/17 08:13:57;;;;;;;32.60;18.92;;;15.80;99.90;;;;;;5032663;23;20111;-59
2021/09/17 08:16:23;;;;;;;27.40;19.95;;;15.80;99.90;;;;;;5012900;28;20064;-58
2021/09/17 08:18:48;;;;;;;35.13;19.50;;;15.90;99.90;;;;;;4998382;28;20038;-57
2021/09/17 08:21:14;;;;;;;38.60;19.42;;;15.90;99.90;;;;;;5001732;28;20030;-60
2021/09/17 08:23:40;;;;;;;31.77;20.05;;;15.90;99.90;;;;;;4996785;28;20473;-53
2021/09/17 08:26:06;;;;;;;25.75;17.30;;;15.90;99.90;;;;;;4996822;28;20103;-61
2021/09/17 08:28:33;;;;;;;25.92;16.17;;;16.00;99.90;;;;;;4997577;28;20547;-61
2021/09/17 08:31:00;;;;;;;33.20;17.73;;;16.10;99.90;;;;;;4997368;28;20075;-58
2021/09/17 08:33:26;;;;;;;29.77;18.75;;;16.10;99.90;;;;;;4998897;28;20058;-61
2021/09/17 08:35:52;;;;;;;32.47;19.05;;;16.10;99.90;;;;;;4999268;28;20442;-59
2021/09/17 08:38:18;;;;;;;30.33;18.67;;;16.10;99.90;;;;;;4996358;28;20038;-61
2021/09/17 08:40:43;;;;;;;31.30;18.00;;;16.20;99.90;;;;;;4998510;28;20097;-60
2021/09/17 08:43:09;;;;;;;27.85;17.48;;;16.30;99.90;;;;;;5005635;28;20029;-61
2021/09/17 08:45:35;;;;;;;35.88;19.92;;;16.40;99.90;;;;;;5008549;28;20148;-62
2021/09/17 08:48:01;;;;;;;25.83;17.80;;;16.40;99.90;;;;;;4999074;28;20108;-60
2021/09/17 08:50:28;;;;;;;33.25;18.83;;;16.50;99.90;;;;;;4997544;28;20022;-62
2021/09/17 08:52:54;;;;;;;26.83;16.55;;;16.50;99.90;;;;;;5008866;28;20045;-60
2021/09/17 08:55:20;;;;;;;24.27;17.20;;;16.60;99.90;;;;;;5001804;28;20038;-61
2021/09/17 08:57:46;;;;;;;29.77;17.73;;;16.70;99.90;;;;;;5000578;28;20141;-62
2021/09/17 09:00:27;;;;;;;31.63;17.10;;;16.70;99.90;;;;;;5011281;28;20128;-60
2021/09/17 09:03:00;;;;;;;30.10;18.15;;;16.70;99.90;;;;;;5000518;28;20559;-61
2021/09/17 09:05:31;;;;;;;32.47;18.80;;;16.80;99.90;;;;;;4998657;28;20026;-61
2021/09/17 09:07:57;;;;;;;29.80;17.20;;;16.90;99.90;;;;;;4999230;28;20585;-63
2021/09/17 09:10:23;;;;;;;34.33;17.55;;;17.00;99.90;;;;;;4998446;28;20048;-61
2021/09/17 09:12:53;;;;;;;37.90;18.15;;;17.00;99.90;;;;;;4999131;28;20122;-59
2021/09/17 09:15:25;;;;;;;25.75;17.00;;;17.10;99.90;;;;;;4998781;28;20560;-60
2021/09/17 09:18:04;;;;;;;35.78;20.75;;;17.10;99.90;;;;;;5001011;28;20060;-60
2021/09/17 09:20:41;;;;;;;32.42;19.30;;;17.20;99.90;;;;;;5001246;28;20021;-61
2021/09/17 09:23:15;;;;;;;38.28;20.67;;;17.30;99.90;;;;;;4998722;28;20034;-61
2021/09/17 09:26:02;;;;;;;30.00;18.20;;;17.30;99.90;;;;;;4998886;28;20029;-59
2021/09/17 09:28:37;;;;;;;27.65;18.05;;;17.30;99.90;;;;;;5001092;28;20042;-54
2021/09/17 09:31:15;;;;;;;32.53;20.17;;;17.40;99.90;;;;;;4999078;28;20084;-60
2021/09/17 09:33:43;;;;;;;33.60;18.15;;;17.40;99.90;;;;;;5002482;28;20457;-58
2021/09/17 09:36:13;;;;;;;31.52;19.63;;;17.50;99.90;;;;;;4997574;28;20048;-60
2021/09/17 09:38:50;;;;;;;30.98;19.35;;;17.50;99.90;;;;;;4985988;28;22429;-59
2021/09/17 09:41:17;;;;;;;30.95;19.10;;;17.50;99.90;;;;;;5000909;28;20483;-60
2021/09/17 09:43:53;;;;;;;32.25;18.30;;;17.50;99.90;;;;;;5001913;28;20041;-61
2021/09/17 09:46:29;;;;;;;28.35;17.45;;;17.40;99.90;;;;;;5001193;28;20025;-57
2021/09/17 09:49:14;;;;;;;27.23;17.55;;;17.60;99.90;;;;;;5005925;28;20030;-61
2021/09/17 09:51:54;;;;;;;30.13;17.77;;;17.70;99.90;;;;;;4999325;28;20034;-63
2021/09/17 09:54:23;;;;;;;30.02;17.75;;;17.70;99.90;;;;;;4998775;28;20047;-62
2021/09/17 09:56:50;;;;;;;24.70;15.43;;;17.70;99.90;;;;;;4996776;28;20033;-62
2021/09/17 09:59:19;;;;;;;27.88;16.52;;;17.90;99.90;;;;;;5002003;28;20029;-60
2021/09/17 10:01:45;;;;;;;27.42;17.10;;;18.00;99.90;;;;;;4997485;28;20498;-60
2021/09/17 10:04:11;;;;;;;36.78;18.05;;;18.10;99.90;;;;;;5000636;28;20092;-61
2021/09/17 10:06:38;;;;;;;27.67;15.52;;;18.10;99.90;;;;;;5000057;28;20030;-62
2021/09/17 10:09:06;;;;;;;29.85;18.88;;;18.20;99.90;;;;;;5000570;28;20695;-63
2021/09/17 10:11:32;;;;;;;34.55;18.55;;;18.30;99.90;;;;;;5016174;28;20505;-60
2021/09/17 10:14:01;;;;;;;33.47;17.63;;;18.30;99.90;;;;;;5004621;28;20033;-59
2021/09/17 10:16:29;;;;;;;35.35;19.40;;;18.40;99.90;;;;;;4999486;28;20044;-63
2021/09/17 10:18:55;;;;;;;30.08;16.80;;;18.40;99.90;;;;;;4987656;28;20030;-61
2021/09/17 10:21:43;;;;;;;31.25;19.00;;;18.40;99.90;;;;;;5004863;28;20486;-60
2021/09/17 10:24:26;;;;;;;29.77;18.63;;;18.40;99.90;;;;;;5007426;28;20033;-60
2021/09/17 10:27:00;;;;;;;35.88;18.75;;;18.40;99.90;;;;;;5004969;28;20123;-62
2021/09/17 10:29:45;;;;;;;32.38;18.60;;;18.50;99.90;;;;;;5005668;28;20092;-64
2021/09/17 10:32:26;;;;;;;32.20;19.95;;;18.30;99.90;;;;;;5004545;28;20048;-60
2021/09/17 10:35:12;;;;;;;28.80;19.17;;;18.30;99.90;;;;;;5006521;28;20034;-59
2021/09/17 10:37:54;;;;;;;32.92;18.42;;;18.50;99.90;;;;;;5002939;28;20141;-60
2021/09/17 10:40:49;;;;;;;28.98;16.52;;;18.80;99.90;;;;;;5002589;28;20494;-61
2021/09/17 10:43:20;;;;;;;29.48;17.45;;;19.10;99.90;;;;;;5004593;28;20034;-62
2021/09/17 10:45:52;;;;;;;30.20;17.40;;;19.30;99.90;;;;;;5000807;28;20109;-61
2021/09/17 10:48:24;;;;;;;28.73;17.35;;;19.50;99.90;;;;;;4998675;28;20038;-59
2021/09/17 10:51:04;;;;;;;33.65;19.02;;;19.50;99.90;;;;;;5000401;28;20056;-59
2021/09/17 10:53:42;;;;;;;29.08;18.73;;;19.70;99.90;;;;;;4995268;28;20087;-62
2021/09/17 10:56:15;;;;;;;31.30;16.63;;;19.80;99.90;;;;;;4998914;28;20619;-57
2021/09/17 10:59:14;;;;;;;27.70;16.70;;;20.00;99.90;;;;;;5001845;28;20037;-58
2021/09/17 11:01:55;;;;;;;30.83;18.85;;;20.10;99.90;;;;;;4999428;28;20040;-60
2021/09/17 11:04:29;;;;;;;33.63;20.65;;;20.20;99.90;;;;;;5003924;28;20064;-62
2021/09/17 11:07:15;;;;;;;36.25;20.17;;;20.40;99.90;;;;;;5003038;28;20574;-60
2021/09/17 11:09:54;;;;;;;31.13;18.45;;;20.10;99.90;;;;;;4999271;28;20022;-60
2021/09/17 11:12:28;;;;;;;32.80;19.48;;;20.40;99.90;;;;;;4997637;28;20269;-62
2021/09/17 11:15:10;;;;;;;42.67;20.13;;;20.60;99.90;;;;;;4987598;28;20574;-62
2021/09/17 11:17:42;;;;;;;30.60;19.77;;;20.70;99.90;;;;;;5000327;28;20056;-61
2021/09/17 11:20:11;;;;;;;31.25;19.75;;;20.50;99.90;;;;;;5002008;28;20044;-62
2021/09/17 11:23:12;;;;;;;33.78;19.27;;;20.70;99.90;;;;;;5006058;28;20524;-62
2021/09/17 11:25:38;;;;;;;30.25;18.75;;;20.80;99.90;;;;;;5017379;28;20073;-59
2021/09/17 11:28:08;;;;;;;36.00;20.25;;;21.00;99.90;;;;;;5006195;28;20030;-59
2021/09/17 11:30:35;;;;;;;33.67;20.50;;;21.20;99.90;;;;;;5003856;28;20133;-58
2021/09/17 11:33:15;;;;;;;31.00;20.27;;;21.20;99.90;;;;;;5001241;28;20045;-63
2021/09/17 11:35:40;;;;;;;31.60;18.27;;;21.00;99.90;;;;;;5005169;28;20030;-59
2021/09/17 11:38:06;;;;;;;37.85;19.55;;;21.10;99.90;;;;;;5000991;28;20061;-62
2021/09/17 11:40:31;;;;;;;32.20;19.02;;;21.30;99.90;;;;;;5000713;28;20036;-63
2021/09/17 11:43:12;;;;;;;32.97;19.85;;;21.60;99.90;;;;;;5004720;28;20022;-58
2021/09/17 11:45:38;;;;;;;33.78;18.75;;;21.60;99.90;;;;;;5000090;28;20037;-61
2021/09/17 11:48:04;;;;;;;28.23;18.20;;;21.80;99.90;;;;;;4999031;28;20413;-62
2021/09/17 11:50:29;;;;;;;30.30;18.83;;;21.60;99.90;;;;;;5002090;28;20037;-62
2021/09/17 11:52:55;;;;;;;29.95;20.65;;;21.40;99.90;;;;;;4997620;28;20509;-59
2021/09/17 11:55:25;;;;;;;30.65;19.10;;;21.20;99.90;;;;;;4998933;28;20034;-59
2021/09/17 11:57:51;;;;;;;29.73;16.77;;;21.10;99.90;;;;;;4990639;28;20180;-59
2021/09/17 12:00:20;;;;;;;33.05;20.77;;;21.20;99.90;;;;;;4995728;28;20029;-63
2021/09/17 12:02:49;;;;;;;32.90;18.52;;;20.80;99.90;;;;;;4995897;28;20034;-60
2021/09/17 12:05:19;;;;;;;33.95;22.20;;;21.20;99.90;;;;;;4995976;28;20034;-61
2021/09/17 12:07:48;;;;;;;29.38;18.63;;;21.40;99.90;;;;;;5000746;28;20037;-58
2021/09/17 12:10:17;;;;;;;28.20;16.42;;;21.60;99.90;;;;;;4999870;28;20054;-60
2021/09/17 12:12:46;;;;;;;32.33;17.88;;;21.60;99.90;;;;;;5004102;28;20033;-62
2021/09/17 12:15:13;;;;;;;26.77;17.13;;;21.40;99.90;;;;;;5002958;28;20092;-60
2021/09/17 12:18:13;;;;;;;26.23;17.88;;;21.60;99.90;;;;;;5002030;28;20026;-61
2021/09/17 12:20:43;;;;;;;27.80;18.00;;;21.70;99.90;;;;;;4960058;28;20046;-61
2021/09/17 12:23:11;;;;;;;25.30;15.98;;;21.40;99.90;;;;;;5001308;28;20080;-58
2021/09/17 12:25:37;;;;;;;28.77;17.80;;;21.00;99.90;;;;;;4991198;28;20034;-57
2021/09/17 12:28:10;;;;;;;27.25;19.13;;;20.80;99.90;;;;;;4994269;28;20056;-59
2021/09/17 12:30:37;;;;;;;33.38;17.25;;;20.70;99.90;;;;;;4981002;28;20400;-59
2021/09/17 12:33:23;;;;;;;32.70;19.17;;;20.80;99.90;;;;;;4993404;28;20120;-57
2021/09/17 12:35:51;;;;;;;24.17;15.63;;;20.90;99.90;;;;;;4998580;28;20513;-60